TimeEET,TemperatureF,Dew PointF,Humidity,Sea Level PressureIn,VisibilityMPH,Wind Direction,Wind SpeedMPH,Gust SpeedMPH,PrecipitationIn,Events,Conditions,WindDirDegrees,DateUTC
12:00 AM,78.8,24.8,14,29.80,-9999.0,NW,11.5,-,N/A,,Clear,320,2013-04-27 22:00:00
1:00 AM,77.0,24.8,14,29.80,-9999.0,NW,9.2,-,N/A,,Clear,320,2013-04-27 23:00:00
2:00 AM,75,25,7,29.79,6,NNW,9.2,,,,,330,2013-04-28 00:00:00
2:00 AM,75.2,24.8,15,29.80,-9999.0,NNW,9.2,-,N/A,,Clear,330,2013-04-28 00:00:00
3:00 AM,73.4,26.6,18,29.80,-9999.0,NNW,9.2,-,N/A,,Clear,330,2013-04-28 01:00:00
4:00 AM,71.6,26.6,19,29.80,-9999.0,NNW,6.9,-,N/A,,Clear,340,2013-04-28 02:00:00
5:00 AM,69.8,28.4,21,29.80,-9999.0,NNW,4.6,-,N/A,,Clear,330,2013-04-28 03:00:00
7:00 AM,75.2,33.8,22,29.80,-9999.0,Calm,Calm,-,N/A,,Clear,0,2013-04-28 05:00:00
8:00 AM,81,35,11,29.81,6,Calm,Calm,,,,,,2013-04-28 06:00:00
8:00 AM,80.6,35.6,20,29.83,-9999.0,Calm,Calm,-,N/A,,Clear,0,2013-04-28 06:00:00
9:00 AM,84.2,32.0,15,29.83,-9999.0,Calm,Calm,-,N/A,,Clear,0,2013-04-28 07:00:00
10:00 AM,89.6,32.0,13,29.83,-9999.0,North,5.8,-,N/A,,Clear,10,2013-04-28 08:00:00
11:00 AM,91.4,32.0,12,29.83,-9999.0,NNW,8.1,-,N/A,,Clear,330,2013-04-28 09:00:00
12:00 PM,95.0,39.2,14,29.80,-9999.0,West,3.5,-,N/A,,Clear,270,2013-04-28 10:00:00
1:00 PM,96.8,35.6,12,29.80,-9999.0,Calm,Calm,-,N/A,,Clear,0,2013-04-28 11:00:00
2:00 PM,97,32,5,29.73,6,ENE,5.8,,,,Clear,60,2013-04-28 12:00:00
2:00 PM,96.8,32.0,10,29.77,-9999.0,ENE,5.8,-,N/A,,Clear,60,2013-04-28 12:00:00
3:00 PM,98.6,30.2,9,29.77,-9999.0,NW,4.6,-,N/A,,Clear,310,2013-04-28 13:00:00
4:00 PM,100.4,35.6,11,29.74,-9999.0,Calm,Calm,-,N/A,,Clear,0,2013-04-28 14:00:00
5:00 PM,98.6,30.2,9,29.74,-9999.0,NNW,11.5,-,N/A,,Clear,330,2013-04-28 15:00:00
6:00 PM,96.8,30.2,10,29.74,-9999.0,NW,10.4,-,N/A,,Clear,320,2013-04-28 16:00:00
7:00 PM,91.4,44.6,20,29.74,-9999.0,NNW,3.5,-,N/A,,Clear,340,2013-04-28 17:00:00
8:00 PM,89,44,12,29.73,6,SSE,5.8,,,,,150,2013-04-28 18:00:00
8:00 PM,89.6,44.6,21,29.77,-9999.0,SSE,5.8,-,N/A,,Clear,150,2013-04-28 18:00:00
9:00 PM,87.8,39.2,18,29.77,-9999.0,SSW,8.1,-,N/A,,Clear,210,2013-04-28 19:00:00
10:00 PM,87.8,37.4,17,29.80,-9999.0,WNW,11.5,-,N/A,,Clear,290,2013-04-28 20:00:00
11:00 PM,86.0,33.8,15,29.80,-9999.0,NW,19.6,-,N/A,,Clear,310,2013-04-28 21:00:00